sensor_id;sensor_type;location;lat;lon;timestamp;P1;durP1;ratioP1;P2;durP2;ratioP2
66374;SDS011;53173;52.176;5.314;2024-01-25T18:37:58;47.85;;;22.83;;
66374;SDS011;53173;52.176;5.314;2024-01-25T18:40:26;48.47;;;23.55;;
66374;SDS011;53173;52.176;5.314;2024-01-25T18:42:53;46.97;;;23.13;;
66374;SDS011;53173;52.176;5.314;2024-01-25T18:45:22;56.25;;;22.85;;
66374;SDS011;53173;52.176;5.314;2024-01-25T18:47:50;56.53;;;24.90;;
66374;SDS011;53173;52.176;5.314;2024-01-25T18:50:33;54.38;;;24.63;;
66374;SDS011;53173;52.176;5.314;2024-01-25T18:53:00;54.65;;;24.23;;
66374;SDS011;53173;52.176;5.314;2024-01-25T18:55:27;57.92;;;25.85;;
66374;SDS011;53173;52.176;5.314;2024-01-25T18:57:56;53.83;;;24.67;;
66374;SDS011;53173;52.176;5.314;2024-01-25T19:00:24;54.83;;;23.92;;
66374;SDS011;53173;52.176;5.314;2024-01-25T19:02:52;69.93;;;26.33;;
66374;SDS011;53173;52.176;5.314;2024-01-25T19:05:19;56.83;;;25.90;;
66374;SDS011;53173;52.176;5.314;2024-01-25T19:07:47;57.50;;;25.58;;
66374;SDS011;53173;52.176;5.314;2024-01-25T19:10:19;65.57;;;27.88;;
66374;SDS011;53173;52.176;5.314;2024-01-25T19:12:47;65.00;;;28.10;;
66374;SDS011;53173;52.176;5.314;2024-01-25T19:15:14;65.55;;;26.50;;
66374;SDS011;53173;52.176;5.314;2024-01-25T19:17:43;66.20;;;26.83;;
66374;SDS011;53173;52.176;5.314;2024-01-25T19:20:16;63.10;;;26.33;;
66374;SDS011;53173;52.176;5.314;2024-01-25T19:22:44;55.72;;;26.23;;
66374;SDS011;53173;52.176;5.314;2024-01-25T19:25:11;52.58;;;25.25;;
66374;SDS011;53173;52.176;5.314;2024-01-25T19:27:41;57.50;;;26.58;;
66374;SDS011;53173;52.176;5.314;2024-01-25T19:30:15;57.13;;;26.83;;
66374;SDS011;53173;52.176;5.314;2024-01-25T19:32:43;58.63;;;27.50;;
66374;SDS011;53173;52.176;5.314;2024-01-25T19:35:13;61.65;;;26.95;;
66374;SDS011;53173;52.176;5.314;2024-01-25T19:37:42;63.50;;;27.70;;
66374;SDS011;53173;52.176;5.314;2024-01-25T19:40:10;54.88;;;25.85;;
66374;SDS011;53173;52.176;5.314;2024-01-25T19:42:37;60.00;;;26.83;;
66374;SDS011;53173;52.176;5.314;2024-01-25T19:45:04;56.17;;;26.40;;
66374;SDS011;53173;52.176;5.314;2024-01-25T19:47:32;54.97;;;26.92;;
66374;SDS011;53173;52.176;5.314;2024-01-25T19:49:59;60.35;;;29.17;;
66374;SDS011;53173;52.176;5.314;2024-01-25T19:52:26;54.13;;;24.38;;
66374;SDS011;53173;52.176;5.314;2024-01-25T19:54:53;52.45;;;25.65;;
66374;SDS011;53173;52.176;5.314;2024-01-25T19:57:20;51.28;;;25.73;;
66374;SDS011;53173;52.176;5.314;2024-01-25T19:59:58;50.20;;;26.60;;
66374;SDS011;53173;52.176;5.314;2024-01-25T20:02:25;49.10;;;24.50;;
66374;SDS011;53173;52.176;5.314;2024-01-25T20:04:53;48.17;;;24.20;;
66374;SDS011;53173;52.176;5.314;2024-01-25T20:07:20;50.20;;;26.67;;
66374;SDS011;53173;52.176;5.314;2024-01-25T20:09:55;46.22;;;25.80;;
66374;SDS011;53173;52.176;5.314;2024-01-25T20:12:22;44.45;;;24.98;;
66374;SDS011;53173;52.176;5.314;2024-01-25T20:14:49;44.92;;;24.17;;
